sensor_id;sensor_type;location;lat;lon;timestamp;temperature;humidity
16491;DHT22;8356;51.214;3.270;2023-08-08T00:01:12;436.10;2355.20
16491;DHT22;8356;51.214;3.270;2023-08-08T00:03:38;436.10;2355.20
16491;DHT22;8356;51.214;3.270;2023-08-08T00:06:03;436.10;2355.20
16491;DHT22;8356;51.214;3.270;2023-08-08T00:08:29;436.10;2355.20
16491;DHT22;8356;51.214;3.270;2023-08-08T00:10:54;436.00;2355.20
16491;DHT22;8356;51.214;3.270;2023-08-08T00:13:20;436.00;2355.20
16491;DHT22;8356;51.214;3.270;2023-08-08T00:15:46;436.00;2355.20
16491;DHT22;8356;51.214;3.270;2023-08-08T00:18:11;436.00;2355.20
16491;DHT22;8356;51.214;3.270;2023-08-08T00:20:37;436.00;2355.20
16491;DHT22;8356;51.214;3.270;2023-08-08T00:23:03;436.00;2355.20
16491;DHT22;8356;51.214;3.270;2023-08-08T00:25:28;435.90;2355.20
16491;DHT22;8356;51.214;3.270;2023-08-08T00:27:54;435.90;2355.20
16491;DHT22;8356;51.214;3.270;2023-08-08T00:30:20;435.90;2355.20
16491;DHT22;8356;51.214;3.270;2023-08-08T00:32:45;435.90;2355.20
16491;DHT22;8356;51.214;3.270;2023-08-08T00:35:11;435.90;2355.20
16491;DHT22;8356;51.214;3.270;2023-08-08T00:37:37;435.90;2355.20
16491;DHT22;8356;51.214;3.270;2023-08-08T00:40:03;435.90;2355.20
16491;DHT22;8356;51.214;3.270;2023-08-08T00:42:28;435.90;2355.20
16491;DHT22;8356;51.214;3.270;2023-08-08T00:44:54;435.90;2355.20
16491;DHT22;8356;51.214;3.270;2023-08-08T00:47:20;435.90;2355.20
16491;DHT22;8356;51.214;3.270;2023-08-08T00:49:45;435.90;2355.20
16491;DHT22;8356;51.214;3.270;2023-08-08T00:52:14;435.80;2355.20
16491;DHT22;8356;51.214;3.270;2023-08-08T00:54:40;435.80;2355.20
16491;DHT22;8356;51.214;3.270;2023-08-08T00:57:06;435.80;2355.20
16491;DHT22;8356;51.214;3.270;2023-08-08T00:59:31;435.80;2355.20
16491;DHT22;8356;51.214;3.270;2023-08-08T01:01:58;435.90;2355.20
16491;DHT22;8356;51.214;3.270;2023-08-08T01:04:26;435.80;2355.20
16491;DHT22;8356;51.214;3.270;2023-08-08T01:09:50;435.70;2355.20
16491;DHT22;8356;51.214;3.270;2023-08-08T01:12:18;435.70;2355.20
16491;DHT22;8356;51.214;3.270;2023-08-08T01:14:44;435.70;2355.20
16491;DHT22;8356;51.214;3.270;2023-08-08T01:17:12;410.40;2355.20
16491;DHT22;8356;51.214;3.270;2023-08-08T01:19:38;435.60;2355.20
16491;DHT22;8356;51.214;3.270;2023-08-08T01:22:07;435.70;2355.20
16491;DHT22;8356;51.214;3.270;2023-08-08T01:24:34;435.70;2355.20
16491;DHT22;8356;51.214;3.270;2023-08-08T01:27:03;435.70;2355.20
16491;DHT22;8356;51.214;3.270;2023-08-08T01:29:29;435.70;2355.20
16491;DHT22;8356;51.214;3.270;2023-08-08T01:31:55;435.70;2355.20
16491;DHT22;8356;51.214;3.270;2023-08-08T01:34:21;435.60;2355.20
16491;DHT22;8356;51.214;3.270;2023-08-08T01:37:02;435.70;2355.20
16491;DHT22;8356;51.214;3.270;2023-08-08T01:39:30;435.60;2355.20
16491;DHT22;8356;51.214;3.270;2023-08-08T01:41:59;435.60;2355.20
16491;DHT22;8356;51.214;3.270;2023-08-08T01:44:25;435.60;2355.20
16491;DHT22;8356;51.214;3.270;2023-08-08T01:46:53;435.60;2355.20
16491;DHT22;8356;51.214;3.270;2023-08-08T01:49:19;435.60;2355.20
16491;DHT22;8356;51.214;3.270;2023-08-08T01:51:45;435.50;2355.20
16491;DHT22;8356;51.214;3.270;2023-08-08T01:54:10;435.50;2355.20
16491;DHT22;8356;51.214;3.270;2023-08-08T01:56:36;435.50;2355.20
16491;DHT22;8356;51.214;3.270;2023-08-08T01:59:02;435.50;2355.20
16491;DHT22;8356;51.214;3.270;2023-08-08T02:01:27;435.50;2355.20
16491;DHT22;8356;51.214;3.270;2023-08-08T02:03:53;435.50;2355.20
16491;DHT22;8356;51.214;3.270;2023-08-08T02:06:18;435.50;2355.20
16491;DHT22;8356;51.214;3.270;2023-08-08T02:08:45;435.50;2355.20
16491;DHT22;8356;51.214;3.270;2023-08-08T02:11:11;435.50;2355.20
16491;DHT22;8356;51.214;3.270;2023-08-08T02:13:36;435.40;2355.20
16491;DHT22;8356;51.214;3.270;2023-08-08T02:16:02;435.30;2355.20
16491;DHT22;8356;51.214;3.270;2023-08-08T02:18:27;435.30;2355.20
16491;DHT22;8356;51.214;3.270;2023-08-08T02:20:53;435.30;2355.20
16491;DHT22;8356;51.214;3.270;2023-08-08T02:23:19;435.40;2355.20
16491;DHT22;8356;51.214;3.270;2023-08-08T02:25:44;435.40;2355.20
16491;DHT22;8356;51.214;3.270;2023-08-08T02:28:10;435.30;2355.20
16491;DHT22;8356;51.214;3.270;2023-08-08T02:30:36;435.30;2355.20
16491;DHT22;8356;51.214;3.270;2023-08-08T02:33:01;435.30;2355.20
16491;DHT22;8356;51.214;3.270;2023-08-08T02:35:27;435.20;2355.20
16491;DHT22;8356;51.214;3.270;2023-08-08T02:37:52;435.20;2355.20
16491;DHT22;8356;51.214;3.270;2023-08-08T02:40:18;435.20;2355.20
16491;DHT22;8356;51.214;3.270;2023-08-08T02:42:44;410.50;2355.20
16491;DHT22;8356;51.214;3.270;2023-08-08T02:45:10;410.50;2355.20
16491;DHT22;8356;51.214;3.270;2023-08-08T02:47:35;435.20;2355.20
16491;DHT22;8356;51.214;3.270;2023-08-08T02:50:01;435.20;2355.20
16491;DHT22;8356;51.214;3.270;2023-08-08T02:52:27;435.20;2355.20
16491;DHT22;8356;51.214;3.270;2023-08-08T02:54:52;435.20;2355.20
16491;DHT22;8356;51.214;3.270;2023-08-08T02:57:18;435.20;2355.20
16491;DHT22;8356;51.214;3.270;2023-08-08T02:59:43;435.20;2355.20
16491;DHT22;8356;51.214;3.270;2023-08-08T03:02:09;435.20;2355.20
16491;DHT22;8356;51.214;3.270;2023-08-08T03:04:35;435.20;2355.20
16491;DHT22;8356;51.214;3.270;2023-08-08T03:07:00;435.20;2355.20
16491;DHT22;8356;51.214;3.270;2023-08-08T03:09:30;435.30;2355.20
16491;DHT22;8356;51.214;3.270;2023-08-08T03:11:55;435.30;2355.20
16491;DHT22;8356;51.214;3.270;2023-08-08T03:14:21;435.30;2355.20
16491;DHT22;8356;51.214;3.270;2023-08-08T03:16:47;435.40;2355.20
16491;DHT22;8356;51.214;3.270;2023-08-08T03:19:12;435.40;2355.20
16491;DHT22;8356;51.214;3.270;2023-08-08T03:21:38;435.40;2355.20
16491;DHT22;8356;51.214;3.270;2023-08-08T03:24:04;435.40;2355.20
16491;DHT22;8356;51.214;3.270;2023-08-08T03:26:30;435.40;2355.20
16491;DHT22;8356;51.214;3.270;2023-08-08T03:28:55;435.40;2355.20
16491;DHT22;8356;51.214;3.270;2023-08-08T03:31:21;435.50;2355.20
16491;DHT22;8356;51.214;3.270;2023-08-08T03:33:47;435.50;2355.20
16491;DHT22;8356;51.214;3.270;2023-08-08T03:36:13;435.50;2355.20
16491;DHT22;8356;51.214;3.270;2023-08-08T03:38:40;435.40;2355.20
16491;DHT22;8356;51.214;3.270;2023-08-08T03:41:05;435.40;2355.20
16491;DHT22;8356;51.214;3.270;2023-08-08T03:43:31;435.40;2355.20
16491;DHT22;8356;51.214;3.270;2023-08-08T03:45:57;435.50;2355.20
16491;DHT22;8356;51.214;3.270;2023-08-08T03:48:22;435.40;2355.20
16491;DHT22;8356;51.214;3.270;2023-08-08T03:50:48;435.30;2355.20
16491;DHT22;8356;51.214;3.270;2023-08-08T03:53:14;435.40;2355.20
16491;DHT22;8356;51.214;3.270;2023-08-08T03:55:39;435.40;2355.20
16491;DHT22;8356;51.214;3.270;2023-08-08T03:58:05;435.30;2355.20
16491;DHT22;8356;51.214;3.270;2023-08-08T04:00:31;435.30;2355.20
16491;DHT22;8356;51.214;3.270;2023-08-08T04:02:57;435.20;2355.20
16491;DHT22;8356;51.214;3.270;2023-08-08T04:05:23;435.20;2355.20
16491;DHT22;8356;51.214;3.270;2023-08-08T04:07:48;435.20;2355.20
16491;DHT22;8356;51.214;3.270;2023-08-08T04:10:14;435.20;2355.20
16491;DHT22;8356;51.214;3.270;2023-08-08T04:12:40;435.20;2355.20
16491;DHT22;8356;51.214;3.270;2023-08-08T04:15:05;435.30;2355.20
16491;DHT22;8356;51.214;3.270;2023-08-08T04:17:31;435.20;2355.20
16491;DHT22;8356;51.214;3.270;2023-08-08T04:19:57;435.30;2355.20
16491;DHT22;8356;51.214;3.270;2023-08-08T04:22:22;435.30;2355.20
16491;DHT22;8356;51.214;3.270;2023-08-08T04:24:48;435.30;2355.20
16491;DHT22;8356;51.214;3.270;2023-08-08T04:27:14;435.30;2355.20
16491;DHT22;8356;51.214;3.270;2023-08-08T04:29:39;435.30;2355.20
16491;DHT22;8356;51.214;3.270;2023-08-08T04:32:05;435.30;2355.20
16491;DHT22;8356;51.214;3.270;2023-08-08T04:34:31;435.30;2355.20
16491;DHT22;8356;51.214;3.270;2023-08-08T04:36:56;435.30;2355.20
16491;DHT22;8356;51.214;3.270;2023-08-08T04:39:22;435.40;2355.20
16491;DHT22;8356;51.214;3.270;2023-08-08T04:41:48;435.30;2355.20
16491;DHT22;8356;51.214;3.270;2023-08-08T04:44:13;435.30;2355.20
16491;DHT22;8356;51.214;3.270;2023-08-08T04:46:39;435.30;2355.20
16491;DHT22;8356;51.214;3.270;2023-08-08T04:49:04;435.30;2355.20
16491;DHT22;8356;51.214;3.270;2023-08-08T04:51:30;435.40;2355.20
16491;DHT22;8356;51.214;3.270;2023-08-08T04:53:56;435.40;2355.20
16491;DHT22;8356;51.214;3.270;2023-08-08T04:56:21;435.50;2355.20
16491;DHT22;8356;51.214;3.270;2023-08-08T04:58:47;435.50;2355.20
16491;DHT22;8356;51.214;3.270;2023-08-08T05:01:12;435.50;2355.20
16491;DHT22;8356;51.214;3.270;2023-08-08T05:03:40;435.50;2355.20
16491;DHT22;8356;51.214;3.270;2023-08-08T05:06:06;435.50;2355.20
16491;DHT22;8356;51.214;3.270;2023-08-08T05:08:31;435.50;2355.20
16491;DHT22;8356;51.214;3.270;2023-08-08T05:10:57;435.40;2355.20
16491;DHT22;8356;51.214;3.270;2023-08-08T05:13:23;435.40;2355.20
16491;DHT22;8356;51.214;3.270;2023-08-08T05:15:48;435.40;2355.20
16491;DHT22;8356;51.214;3.270;2023-08-08T05:18:14;435.30;2355.20
16491;DHT22;8356;51.214;3.270;2023-08-08T05:20:40;435.30;2355.20
16491;DHT22;8356;51.214;3.270;2023-08-08T05:23:05;435.40;2355.20
16491;DHT22;8356;51.214;3.270;2023-08-08T05:25:31;435.40;2355.20
16491;DHT22;8356;51.214;3.270;2023-08-08T05:27:56;435.40;2355.20
16491;DHT22;8356;51.214;3.270;2023-08-08T05:30:22;435.40;2355.20
16491;DHT22;8356;51.214;3.270;2023-08-08T05:32:48;435.40;2355.20
16491;DHT22;8356;51.214;3.270;2023-08-08T05:35:14;435.40;2355.20
16491;DHT22;8356;51.214;3.270;2023-08-08T05:37:39;435.50;2355.20
16491;DHT22;8356;51.214;3.270;2023-08-08T05:40:05;435.50;2355.20
16491;DHT22;8356;51.214;3.270;2023-08-08T05:42:32;435.50;2355.20
16491;DHT22;8356;51.214;3.270;2023-08-08T05:44:58;435.60;2355.20
16491;DHT22;8356;51.214;3.270;2023-08-08T05:47:23;435.50;2355.20
16491;DHT22;8356;51.214;3.270;2023-08-08T05:49:49;435.60;2355.20
16491;DHT22;8356;51.214;3.270;2023-08-08T05:52:15;435.60;2355.20
16491;DHT22;8356;51.214;3.270;2023-08-08T05:54:41;435.60;2355.20
16491;DHT22;8356;51.214;3.270;2023-08-08T05:57:06;435.60;2355.20
16491;DHT22;8356;51.214;3.270;2023-08-08T05:59:32;435.70;2355.20
16491;DHT22;8356;51.214;3.270;2023-08-08T06:01:58;435.70;2355.20
16491;DHT22;8356;51.214;3.270;2023-08-08T06:04:24;435.70;2355.20
16491;DHT22;8356;51.214;3.270;2023-08-08T06:06:50;435.80;2355.20
16491;DHT22;8356;51.214;3.270;2023-08-08T06:09:16;435.80;2355.20
16491;DHT22;8356;51.214;3.270;2023-08-08T06:11:42;461.50;2380.80
16491;DHT22;8356;51.214;3.270;2023-08-08T06:14:08;435.90;2355.20
16491;DHT22;8356;51.214;3.270;2023-08-08T06:16:34;435.90;2355.20
16491;DHT22;8356;51.214;3.270;2023-08-08T06:18:59;436.00;2355.20
16491;DHT22;8356;51.214;3.270;2023-08-08T06:21:25;436.00;2355.20
16491;DHT22;8356;51.214;3.270;2023-08-08T06:23:51;436.10;2355.20
16491;DHT22;8356;51.214;3.270;2023-08-08T06:26:20;436.10;2355.20
16491;DHT22;8356;51.214;3.270;2023-08-08T06:28:47;460.80;2380.80
16491;DHT22;8356;51.214;3.270;2023-08-08T06:31:13;460.80;2380.80
16491;DHT22;8356;51.214;3.270;2023-08-08T06:33:39;460.80;2380.80
16491;DHT22;8356;51.214;3.270;2023-08-08T06:36:05;460.80;2380.80
16491;DHT22;8356;51.214;3.270;2023-08-08T06:38:31;435.80;2355.20
16491;DHT22;8356;51.214;3.270;2023-08-08T06:41:00;460.80;2380.80
16491;DHT22;8356;51.214;3.270;2023-08-08T06:43:26;460.80;2380.80
16491;DHT22;8356;51.214;3.270;2023-08-08T06:45:52;460.80;2380.80
16491;DHT22;8356;51.214;3.270;2023-08-08T06:48:17;436.10;2355.20
16491;DHT22;8356;51.214;3.270;2023-08-08T06:50:43;436.10;2355.20
16491;DHT22;8356;51.214;3.270;2023-08-08T06:53:09;436.10;2355.20
16491;DHT22;8356;51.214;3.270;2023-08-08T06:55:34;436.10;2355.20
16491;DHT22;8356;51.214;3.270;2023-08-08T06:58:00;436.10;2355.20
16491;DHT22;8356;51.214;3.270;2023-08-08T07:00:25;460.80;2380.80
16491;DHT22;8356;51.214;3.270;2023-08-08T07:02:52;460.80;2380.80
16491;DHT22;8356;51.214;3.270;2023-08-08T07:05:18;460.80;2380.80
16491;DHT22;8356;51.214;3.270;2023-08-08T07:07:44;460.80;2380.80
16491;DHT22;8356;51.214;3.270;2023-08-08T07:10:10;460.80;2380.80
16491;DHT22;8356;51.214;3.270;2023-08-08T07:12:38;460.90;2380.80
16491;DHT22;8356;51.214;3.270;2023-08-08T07:15:06;461.00;2380.80
16491;DHT22;8356;51.214;3.270;2023-08-08T07:17:32;461.00;2380.80
16491;DHT22;8356;51.214;3.270;2023-08-08T07:19:58;461.10;2380.80
16491;DHT22;8356;51.214;3.270;2023-08-08T07:22:24;461.10;2380.80
16491;DHT22;8356;51.214;3.270;2023-08-08T07:24:50;461.40;2380.80
16491;DHT22;8356;51.214;3.270;2023-08-08T07:27:15;461.20;2380.80
16491;DHT22;8356;51.214;3.270;2023-08-08T07:29:41;461.20;2380.80
16491;DHT22;8356;51.214;3.270;2023-08-08T07:32:07;461.20;2380.80
16491;DHT22;8356;51.214;3.270;2023-08-08T07:34:35;461.20;2380.80
16491;DHT22;8356;51.214;3.270;2023-08-08T07:37:02;461.10;2380.80
16491;DHT22;8356;51.214;3.270;2023-08-08T07:39:28;461.10;2380.80
16491;DHT22;8356;51.214;3.270;2023-08-08T07:41:54;461.10;2380.80
16491;DHT22;8356;51.214;3.270;2023-08-08T07:44:20;461.10;2380.80
16491;DHT22;8356;51.214;3.270;2023-08-08T07:46:46;461.10;2380.80
16491;DHT22;8356;51.214;3.270;2023-08-08T07:49:11;461.10;2380.80
16491;DHT22;8356;51.214;3.270;2023-08-08T07:51:37;461.10;2380.80
16491;DHT22;8356;51.214;3.270;2023-08-08T07:54:02;461.10;2380.80
16491;DHT22;8356;51.214;3.270;2023-08-08T07:56:31;461.20;2380.80
16491;DHT22;8356;51.214;3.270;2023-08-08T07:58:56;461.20;2380.80
16491;DHT22;8356;51.214;3.270;2023-08-08T08:01:22;461.20;2380.80
16491;DHT22;8356;51.214;3.270;2023-08-08T08:03:48;461.40;2380.80
16491;DHT22;8356;51.214;3.270;2023-08-08T08:06:14;461.40;2380.80
16491;DHT22;8356;51.214;3.270;2023-08-08T08:08:39;461.40;2380.80
16491;DHT22;8356;51.214;3.270;2023-08-08T08:11:05;461.50;2380.80
16491;DHT22;8356;51.214;3.270;2023-08-08T08:13:31;461.50;2380.80
16491;DHT22;8356;51.214;3.270;2023-08-08T08:15:56;461.60;2380.80
16491;DHT22;8356;51.214;3.270;2023-08-08T08:18:22;461.60;2380.80
16491;DHT22;8356;51.214;3.270;2023-08-08T08:20:49;486.40;2380.80
16491;DHT22;8356;51.214;3.270;2023-08-08T08:23:14;486.50;2380.80
16491;DHT22;8356;51.214;3.270;2023-08-08T08:25:40;486.60;2380.80
16491;DHT22;8356;51.214;3.270;2023-08-08T08:28:05;486.70;2380.80
16491;DHT22;8356;51.214;3.270;2023-08-08T08:30:31;486.80;2380.80
16491;DHT22;8356;51.214;3.270;2023-08-08T08:32:57;486.80;2380.80
16491;DHT22;8356;51.214;3.270;2023-08-08T08:35:22;486.90;2380.80
16491;DHT22;8356;51.214;3.270;2023-08-08T08:37:48;487.10;2380.80
16491;DHT22;8356;51.214;3.270;2023-08-08T08:40:14;487.30;2380.80
16491;DHT22;8356;51.214;3.270;2023-08-08T08:42:40;512.20;2380.80
16491;DHT22;8356;51.214;3.270;2023-08-08T08:45:08;512.70;2380.80
16491;DHT22;8356;51.214;3.270;2023-08-08T08:47:36;512.90;2380.80
16491;DHT22;8356;51.214;3.270;2023-08-08T08:50:02;537.90;2406.40
16491;DHT22;8356;51.214;3.270;2023-08-08T08:52:29;538.30;2406.40
16491;DHT22;8356;51.214;3.270;2023-08-08T08:54:55;538.10;2406.40
16491;DHT22;8356;51.214;3.270;2023-08-08T08:57:22;537.80;2406.40
16491;DHT22;8356;51.214;3.270;2023-08-08T08:59:52;512.90;2380.80
16491;DHT22;8356;51.214;3.270;2023-08-08T09:02:18;512.70;2380.80
16491;DHT22;8356;51.214;3.270;2023-08-08T09:04:45;512.30;2380.80
16491;DHT22;8356;51.214;3.270;2023-08-08T09:07:11;512.30;2380.80
16491;DHT22;8356;51.214;3.270;2023-08-08T09:09:38;512.30;2380.80
16491;DHT22;8356;51.214;3.270;2023-08-08T09:12:04;512.30;2380.80
16491;DHT22;8356;51.214;3.270;2023-08-08T09:14:33;512.30;2380.80
16491;DHT22;8356;51.214;3.270;2023-08-08T09:16:58;512.30;2380.80
16491;DHT22;8356;51.214;3.270;2023-08-08T09:19:24;512.30;2380.80
16491;DHT22;8356;51.214;3.270;2023-08-08T09:21:51;512.40;2380.80
16491;DHT22;8356;51.214;3.270;2023-08-08T09:24:18;512.50;2380.80
16491;DHT22;8356;51.214;3.270;2023-08-08T09:26:44;512.50;2380.80
16491;DHT22;8356;51.214;3.270;2023-08-08T09:29:12;512.50;2380.80
16491;DHT22;8356;51.214;3.270;2023-08-08T09:31:39;512.80;2380.80
16491;DHT22;8356;51.214;3.270;2023-08-08T09:34:05;537.80;2406.40
16491;DHT22;8356;51.214;3.270;2023-08-08T09:36:31;537.90;2406.40
16491;DHT22;8356;51.214;3.270;2023-08-08T09:38:58;538.10;2406.40
16491;DHT22;8356;51.214;3.270;2023-08-08T09:41:25;538.10;2406.40
16491;DHT22;8356;51.214;3.270;2023-08-08T09:43:52;537.90;2406.40
16491;DHT22;8356;51.214;3.270;2023-08-08T09:46:21;538.00;2406.40
16491;DHT22;8356;51.214;3.270;2023-08-08T09:48:47;538.10;2406.40
16491;DHT22;8356;51.214;3.270;2023-08-08T09:51:14;537.90;2406.40
16491;DHT22;8356;51.214;3.270;2023-08-08T09:53:40;537.60;2406.40
16491;DHT22;8356;51.214;3.270;2023-08-08T09:56:07;512.80;2380.80
16491;DHT22;8356;51.214;3.270;2023-08-08T09:58:33;512.70;2380.80
16491;DHT22;8356;51.214;3.270;2023-08-08T10:01:00;512.70;2380.80
16491;DHT22;8356;51.214;3.270;2023-08-08T10:03:26;512.50;2380.80
16491;DHT22;8356;51.214;3.270;2023-08-08T10:05:53;512.30;2380.80
16491;DHT22;8356;51.214;3.270;2023-08-08T10:08:19;512.20;2380.80
16491;DHT22;8356;51.214;3.270;2023-08-08T10:10:47;512.30;2380.80
16491;DHT22;8356;51.214;3.270;2023-08-08T10:13:20;537.80;2406.40
16491;DHT22;8356;51.214;3.270;2023-08-08T10:15:46;538.20;2406.40
16491;DHT22;8356;51.214;3.270;2023-08-08T10:18:13;538.50;2406.40
16491;DHT22;8356;51.214;3.270;2023-08-08T10:20:39;538.30;2406.40
16491;DHT22;8356;51.214;3.270;2023-08-08T10:23:07;538.30;2406.40
16491;DHT22;8356;51.214;3.270;2023-08-08T10:25:33;538.30;2406.40
16491;DHT22;8356;51.214;3.270;2023-08-08T10:28:12;538.30;2406.40
16491;DHT22;8356;51.214;3.270;2023-08-08T10:30:43;538.20;2406.40
16491;DHT22;8356;51.214;3.270;2023-08-08T10:33:20;538.00;2406.40
16491;DHT22;8356;51.214;3.270;2023-08-08T10:36:03;537.80;2406.40
16491;DHT22;8356;51.214;3.270;2023-08-08T10:38:43;537.80;2406.40
16491;DHT22;8356;51.214;3.270;2023-08-08T10:41:17;537.70;2406.40
16491;DHT22;8356;51.214;3.270;2023-08-08T10:43:49;538.00;2406.40
16491;DHT22;8356;51.214;3.270;2023-08-08T10:46:32;538.10;2406.40
16491;DHT22;8356;51.214;3.270;2023-08-08T10:49:05;563.30;2432.00
16491;DHT22;8356;51.214;3.270;2023-08-08T10:51:39;563.50;2432.00
16491;DHT22;8356;51.214;3.270;2023-08-08T10:54:13;563.40;2432.00
16491;DHT22;8356;51.214;3.270;2023-08-08T10:56:40;563.50;2432.00
16491;DHT22;8356;51.214;3.270;2023-08-08T10:59:21;563.40;2432.00
16491;DHT22;8356;51.214;3.270;2023-08-08T11:01:48;563.30;2432.00
16491;DHT22;8356;51.214;3.270;2023-08-08T11:04:16;563.20;2432.00
16491;DHT22;8356;51.214;3.270;2023-08-08T11:06:43;538.40;2406.40
16491;DHT22;8356;51.214;3.270;2023-08-08T11:09:10;538.30;2406.40
16491;DHT22;8356;51.214;3.270;2023-08-08T11:11:37;538.40;2406.40
16491;DHT22;8356;51.214;3.270;2023-08-08T11:14:17;563.60;2432.00
16491;DHT22;8356;51.214;3.270;2023-08-08T11:16:44;563.80;2432.00
16491;DHT22;8356;51.214;3.270;2023-08-08T11:19:11;588.80;2432.00
16491;DHT22;8356;51.214;3.270;2023-08-08T11:21:41;588.90;2432.00
16491;DHT22;8356;51.214;3.270;2023-08-08T11:24:08;564.10;2432.00
16491;DHT22;8356;51.214;3.270;2023-08-08T11:26:35;563.90;2432.00
16491;DHT22;8356;51.214;3.270;2023-08-08T11:29:02;563.90;2432.00
16491;DHT22;8356;51.214;3.270;2023-08-08T11:31:28;563.90;2432.00
16491;DHT22;8356;51.214;3.270;2023-08-08T11:33:55;588.90;2432.00
16491;DHT22;8356;51.214;3.270;2023-08-08T11:36:22;589.40;2432.00
16491;DHT22;8356;51.214;3.270;2023-08-08T11:38:48;589.60;2432.00
16491;DHT22;8356;51.214;3.270;2023-08-08T11:41:16;589.50;2432.00
16491;DHT22;8356;51.214;3.270;2023-08-08T11:43:44;589.40;2432.00
16491;DHT22;8356;51.214;3.270;2023-08-08T11:46:12;589.00;2432.00
16491;DHT22;8356;51.214;3.270;2023-08-08T11:48:38;564.10;2432.00
16491;DHT22;8356;51.214;3.270;2023-08-08T11:51:04;588.80;2432.00
16491;DHT22;8356;51.214;3.270;2023-08-08T11:53:30;564.10;2432.00
16491;DHT22;8356;51.214;3.270;2023-08-08T11:55:57;564.00;2432.00
16491;DHT22;8356;51.214;3.270;2023-08-08T11:58:24;563.90;2432.00
16491;DHT22;8356;51.214;3.270;2023-08-08T12:00:51;563.80;2432.00
16491;DHT22;8356;51.214;3.270;2023-08-08T12:03:18;563.80;2432.00
16491;DHT22;8356;51.214;3.270;2023-08-08T12:05:48;563.70;2432.00
16491;DHT22;8356;51.214;3.270;2023-08-08T12:08:20;563.80;2432.00
16491;DHT22;8356;51.214;3.270;2023-08-08T12:10:52;563.80;2432.00
16491;DHT22;8356;51.214;3.270;2023-08-08T12:13:21;563.80;2432.00
16491;DHT22;8356;51.214;3.270;2023-08-08T12:15:47;563.70;2432.00
16491;DHT22;8356;51.214;3.270;2023-08-08T12:18:16;563.60;2432.00
16491;DHT22;8356;51.214;3.270;2023-08-08T12:20:43;563.70;2432.00
16491;DHT22;8356;51.214;3.270;2023-08-08T12:23:08;563.80;2432.00
16491;DHT22;8356;51.214;3.270;2023-08-08T12:25:34;563.60;2432.00
16491;DHT22;8356;51.214;3.270;2023-08-08T12:28:01;563.80;2432.00
16491;DHT22;8356;51.214;3.270;2023-08-08T12:30:26;564.00;2432.00
16491;DHT22;8356;51.214;3.270;2023-08-08T12:32:52;588.80;2432.00
16491;DHT22;8356;51.214;3.270;2023-08-08T12:35:19;564.00;2432.00
16491;DHT22;8356;51.214;3.270;2023-08-08T12:37:48;563.90;2432.00
16491;DHT22;8356;51.214;3.270;2023-08-08T12:40:14;563.80;2432.00
16491;DHT22;8356;51.214;3.270;2023-08-08T12:42:39;563.60;2432.00
16491;DHT22;8356;51.214;3.270;2023-08-08T12:45:06;563.80;2432.00
16491;DHT22;8356;51.214;3.270;2023-08-08T12:47:32;563.90;2432.00
16491;DHT22;8356;51.214;3.270;2023-08-08T12:50:01;588.80;2432.00
16491;DHT22;8356;51.214;3.270;2023-08-08T12:52:28;588.80;2432.00
16491;DHT22;8356;51.214;3.270;2023-08-08T12:54:53;588.90;2432.00
16491;DHT22;8356;51.214;3.270;2023-08-08T12:57:19;588.90;2432.00
16491;DHT22;8356;51.214;3.270;2023-08-08T12:59:45;564.10;2432.00
16491;DHT22;8356;51.214;3.270;2023-08-08T13:02:10;564.10;2432.00
16491;DHT22;8356;51.214;3.270;2023-08-08T13:04:36;564.00;2432.00
16491;DHT22;8356;51.214;3.270;2023-08-08T13:07:02;564.00;2432.00
16491;DHT22;8356;51.214;3.270;2023-08-08T13:09:28;564.00;2432.00
16491;DHT22;8356;51.214;3.270;2023-08-08T13:11:53;564.10;2432.00
16491;DHT22;8356;51.214;3.270;2023-08-08T13:14:19;564.10;2432.00
16491;DHT22;8356;51.214;3.270;2023-08-08T13:16:45;588.90;2432.00
16491;DHT22;8356;51.214;3.270;2023-08-08T13:19:11;589.00;2432.00
16491;DHT22;8356;51.214;3.270;2023-08-08T13:21:36;589.00;2432.00
16491;DHT22;8356;51.214;3.270;2023-08-08T13:24:03;589.00;2432.00
16491;DHT22;8356;51.214;3.270;2023-08-08T13:26:29;588.80;2432.00
16491;DHT22;8356;51.214;3.270;2023-08-08T13:28:55;564.00;2432.00
16491;DHT22;8356;51.214;3.270;2023-08-08T13:31:20;563.80;2432.00
16491;DHT22;8356;51.214;3.270;2023-08-08T13:33:46;563.70;2432.00
16491;DHT22;8356;51.214;3.270;2023-08-08T13:36:12;563.70;2432.00
16491;DHT22;8356;51.214;3.270;2023-08-08T13:38:37;563.60;2432.00
16491;DHT22;8356;51.214;3.270;2023-08-08T13:41:03;563.50;2432.00
16491;DHT22;8356;51.214;3.270;2023-08-08T13:43:29;563.40;2432.00
16491;DHT22;8356;51.214;3.270;2023-08-08T13:45:55;563.20;2432.00
16491;DHT22;8356;51.214;3.270;2023-08-08T13:48:21;538.40;2406.40
16491;DHT22;8356;51.214;3.270;2023-08-08T13:50:47;538.30;2406.40
16491;DHT22;8356;51.214;3.270;2023-08-08T13:53:13;538.30;2406.40
16491;DHT22;8356;51.214;3.270;2023-08-08T13:55:39;538.20;2406.40
16491;DHT22;8356;51.214;3.270;2023-08-08T13:58:06;538.00;2406.40
16491;DHT22;8356;51.214;3.270;2023-08-08T14:00:32;537.90;2406.40
16491;DHT22;8356;51.214;3.270;2023-08-08T14:02:58;537.80;2406.40
16491;DHT22;8356;51.214;3.270;2023-08-08T14:05:24;537.70;2406.40
16491;DHT22;8356;51.214;3.270;2023-08-08T14:07:50;537.70;2406.40
16491;DHT22;8356;51.214;3.270;2023-08-08T14:10:16;537.60;2406.40
16491;DHT22;8356;51.214;3.270;2023-08-08T14:12:41;537.60;2406.40
16491;DHT22;8356;51.214;3.270;2023-08-08T14:15:07;537.60;2406.40
16491;DHT22;8356;51.214;3.270;2023-08-08T14:17:34;537.60;2406.40
16491;DHT22;8356;51.214;3.270;2023-08-08T14:20:00;537.70;2406.40
16491;DHT22;8356;51.214;3.270;2023-08-08T14:22:26;537.80;2406.40
16491;DHT22;8356;51.214;3.270;2023-08-08T14:24:51;537.80;2406.40
16491;DHT22;8356;51.214;3.270;2023-08-08T14:27:17;538.00;2406.40
16491;DHT22;8356;51.214;3.270;2023-08-08T14:29:43;538.10;2406.40
16491;DHT22;8356;51.214;3.270;2023-08-08T14:32:08;538.00;2406.40
16491;DHT22;8356;51.214;3.270;2023-08-08T14:34:34;537.80;2406.40
16491;DHT22;8356;51.214;3.270;2023-08-08T14:37:02;537.70;2406.40
16491;DHT22;8356;51.214;3.270;2023-08-08T14:39:28;537.60;2406.40
16491;DHT22;8356;51.214;3.270;2023-08-08T14:41:54;512.90;2380.80
16491;DHT22;8356;51.214;3.270;2023-08-08T14:44:20;512.60;2380.80
16491;DHT22;8356;51.214;3.270;2023-08-08T14:46:45;512.50;2380.80
16491;DHT22;8356;51.214;3.270;2023-08-08T14:49:11;512.50;2380.80
16491;DHT22;8356;51.214;3.270;2023-08-08T14:51:37;512.60;2380.80
16491;DHT22;8356;51.214;3.270;2023-08-08T14:54:03;512.60;2380.80
16491;DHT22;8356;51.214;3.270;2023-08-08T14:56:29;512.80;2380.80
16491;DHT22;8356;51.214;3.270;2023-08-08T14:58:55;537.70;2406.40
16491;DHT22;8356;51.214;3.270;2023-08-08T15:01:21;537.80;2406.40